Amlin, Ohio
Current Conditions -  °F | °C
As of 3:53 AM on Friday 24 Oct 2014 (Local Time) from KOSU Reporting Station
Haze Haze  
Wind Chill: 39°   Ceiling: Unl
Heat Index: 39°   Visibility: 4mi
Dew Point: 37°   Wind: 3mph
Humidity: 93%   Direction: 260°W
Pressure: 30.12"   Gusts: NA
Location:  40.08°N, 83.18°W
Report Text: KOSU 240753Z AUTO 26003KT 4SM BR CLR 04/03 A3012 RMK AO2 SLP202 T00390028
Loading
Personal Weather Stations






























Interactive Weather Map New forecast layout! Learn more

10-Day Weather Forecast

Advertisements
Track Severe Weather on mobile